Time;durP1;ratioP1;P1;durP2;ratioP2;P2;SDS_P1;SDS_P2;PMS_P1;PMS_P2;Temp;Humidity;BMP_temperature;BMP_pressure;BME280_temperature;BME280_humidity;BME280_pressure;Samples;Min_cycle;Max_cycle;Signal;HPM_P1;HPM_P2
2024/03/05 00:00:37;;;;;;;21.30;18.00;;;;;;;2.95;88.43;99668.66;103504;1252;96506;-72
2024/03/05 00:03:24;;;;;;;24.70;17.60;;;;;;;2.97;88.22;99673.63;103414;1251;138601;-69
2024/03/05 00:05:52;;;;;;;21.30;16.60;;;;;;;2.96;88.58;99674.83;103607;1252;106926;-71
2024/03/05 00:08:19;;;;;;;19.40;16.10;;;;;;;3.00;88.55;99674.45;103408;1252;138697;-71
2024/03/05 00:10:46;;;;;;;22.10;15.90;;;;;;;3.05;88.67;99677.65;103495;1251;108298;-71
2024/03/05 00:13:14;;;;;;;20.60;15.80;;;;;;;3.11;88.82;99677.59;103316;1251;97225;-72
2024/03/05 00:15:41;;;;;;;20.40;15.90;;;;;;;3.15;88.57;99677.55;103222;1253;138091;-70
2024/03/05 00:18:08;;;;;;;23.90;16.80;;;;;;;3.18;88.59;99678.02;103468;1255;107525;-70
2024/03/05 00:20:36;;;;;;;20.70;15.40;;;;;;;3.23;88.32;99678.50;103822;1251;138632;-70
2024/03/05 00:23:03;;;;;;;19.40;15.70;;;;;;;3.25;88.36;99677.61;103497;1255;108039;-70
2024/03/05 00:25:31;;;;;;;21.50;16.10;;;;;;;3.30;88.16;99678.93;103899;1251;96544;-71
2024/03/05 00:27:58;;;;;;;21.90;16.40;;;;;;;3.34;88.27;99676.98;103381;1250;138208;-70
2024/03/05 00:30:25;;;;;;;20.50;16.60;;;;;;;3.38;88.21;99677.45;103556;1251;107648;-70
2024/03/05 00:32:52;;;;;;;20.20;16.70;;;;;;;3.43;88.45;99675.16;103411;1255;138157;-71
2024/03/05 00:35:19;;;;;;;21.50;17.20;;;;;;;3.47;88.40;99678.21;103547;1253;107247;-70
2024/03/05 00:37:46;;;;;;;23.30;16.70;;;;;;;3.49;87.95;99681.96;103462;1251;96448;-71
2024/03/05 00:40:14;;;;;;;23.60;17.80;;;;;;;3.52;87.93;99681.92;103477;1252;137895;-70
2024/03/05 00:42:41;;;;;;;22.10;17.50;;;;;;;3.53;87.78;99681.38;103885;1251;107899;-71
2024/03/05 00:45:12;;;;;;;23.70;17.20;;;;;;;3.53;87.64;99678.45;103480;1255;138449;-71
2024/03/05 00:47:39;;;;;;;23.70;18.00;;;;;;;3.51;87.52;99676.77;103614;1255;106187;-71
2024/03/05 00:50:08;;;;;;;23.10;18.00;;;;;;;3.53;87.48;99677.61;103472;1251;139167;-71
2024/03/05 00:52:35;;;;;;;22.50;18.50;;;;;;;3.52;87.41;99680.89;103640;1253;110533;-70
2024/03/05 00:55:05;;;;;;;22.00;17.70;;;;;;;3.50;87.29;99681.77;103549;1251;109199;-70
2024/03/05 00:57:33;;;;;;;23.40;18.50;;;;;;;3.49;87.24;99679.20;103351;1255;138466;-71
2024/03/05 00:59:59;;;;;;;23.10;18.00;;;;;;;3.49;87.23;99680.23;103509;1251;108679;-71
2024/03/05 01:02:27;;;;;;;24.50;17.90;;;;;;;3.49;87.27;99674.91;103470;1252;138696;-72
2024/03/05 01:04:54;;;;;;;22.90;17.70;;;;;;;3.48;87.44;99674.06;102768;1251;1003561;-71
2024/03/05 01:07:21;;;;;;;23.00;18.40;;;;;;;3.45;87.09;99671.02;103399;1252;107177;-71
2024/03/05 01:09:50;;;;;;;22.90;18.30;;;;;;;3.40;87.29;99670.73;104298;1251;139789;-72
2024/03/05 01:12:17;;;;;;;24.10;18.40;;;;;;;3.37;87.42;99669.02;103466;1255;108400;-71
2024/03/05 01:14:44;;;;;;;24.00;18.30;;;;;;;3.34;87.54;99662.20;103290;1252;138165;-71
2024/03/05 01:17:14;;;;;;;24.30;18.40;;;;;;;3.30;87.61;99662.44;103456;1255;110158;-71
2024/03/05 01:19:41;;;;;;;25.00;18.90;;;;;;;3.26;87.80;99664.73;103532;1255;107811;-71
2024/03/05 01:22:08;;;;;;;25.80;18.20;;;;;;;3.22;87.96;99659.77;103122;1251;138336;-71
2024/03/05 01:24:35;;;;;;;24.20;18.30;;;;;;;3.18;88.08;99658.44;103412;1253;107385;-71
2024/03/05 01:27:03;;;;;;;22.70;17.50;;;;;;;3.19;88.23;99660.66;103340;1255;138201;-71
2024/03/05 01:29:30;;;;;;;23.90;16.80;;;;;;;3.20;88.42;99659.61;103434;1256;110499;-70
2024/03/05 01:31:59;;;;;;;20.90;15.80;;;;;;;3.22;88.54;99654.78;103415;1251;108334;-71
2024/03/05 01:34:27;;;;;;;21.20;17.20;;;;;;;3.22;88.33;99656.67;103474;1255;96339;-71
2024/03/05 01:36:57;;;;;;;22.80;17.60;;;;;;;3.22;88.44;99654.27;103445;1255;108236;-71
2024/03/05 01:39:25;;;;;;;24.60;17.70;;;;;;;3.22;88.77;99655.81;103457;1252;138759;-69
2024/03/05 01:41:53;;;;;;;22.90;18.20;;;;;;;3.23;88.86;99661.30;103541;1253;110507;-71
2024/03/05 01:44:20;;;;;;;23.30;17.70;;;;;;;3.21;88.76;99659.42;103435;1251;139469;-71
2024/03/05 01:46:48;;;;;;;22.50;17.00;;;;;;;3.20;89.07;99663.91;103546;1253;97043;-71
2024/03/05 01:49:16;;;;;;;23.60;18.20;;;;;;;3.20;88.96;99664.77;103376;1253;108010;-71
2024/03/05 01:51:44;;;;;;;25.20;17.40;;;;;;;3.19;89.12;99669.08;103369;1255;138496;-71
2024/03/05 01:54:12;;;;;;;24.40;17.50;;;;;;;3.19;89.34;99668.39;103417;1253;109109;-72
2024/03/05 01:56:39;;;;;;;24.70;18.40;;;;;;;3.19;89.58;99670.63;102576;1253;1002912;-71
2024/03/05 01:59:07;;;;;;;25.40;18.90;;;;;;;3.20;90.04;99672.33;103508;1255;96933;-70
2024/03/05 02:01:35;;;;;;;24.40;18.40;;;;;;;3.22;90.09;99668.88;103508;1253;108715;-72
2024/03/05 02:04:02;;;;;;;23.30;18.40;;;;;;;3.24;90.10;99668.70;103701;1251;138310;-71
2024/03/05 02:06:31;;;;;;;24.10;18.10;;;;;;;3.25;90.14;99669.20;103480;1251;109828;-72
2024/03/05 02:08:58;;;;;;;23.50;18.40;;;;;;;3.26;90.06;99665.92;103335;1255;138236;-70
2024/03/05 02:11:25;;;;;;;28.20;19.60;;;;;;;3.27;90.20;99669.16;103395;1252;96969;-71
2024/03/05 02:13:53;;;;;;;25.70;19.30;;;;;;;3.29;90.25;99668.63;103496;1252;107346;-72
2024/03/05 02:16:20;;;;;;;25.60;19.20;;;;;;;3.31;90.42;99667.58;103217;1258;138669;-72
2024/03/05 02:18:47;;;;;;;23.80;18.10;;;;;;;3.30;90.25;99666.90;103428;1252;110172;-70
2024/03/05 02:21:22;;;;;;;26.60;18.90;;;;;;;3.31;90.38;99667.73;103886;1252;138350;-70
2024/03/05 02:23:49;;;;;;;24.50;19.30;;;;;;;3.32;90.33;99665.49;103792;1255;96993;-71
2024/03/05 02:26:18;;;;;;;25.50;19.60;;;;;;;3.31;90.25;99666.70;103304;1253;138199;-72
2024/03/05 02:28:47;;;;;;;25.20;19.50;;;;;;;3.32;90.42;99665.67;103805;1257;96528;-70
2024/03/05 02:31:15;;;;;;;25.80;19.60;;;;;;;3.32;90.43;99663.09;103937;1252;109925;-71
2024/03/05 02:33:44;;;;;;;25.50;20.10;;;;;;;3.33;90.42;99662.57;103495;1255;138281;-70
2024/03/05 02:36:11;;;;;;;26.00;19.90;;;;;;;3.35;90.49;99663.74;103405;1255;96478;-71
2024/03/05 02:38:39;;;;;;;26.90;18.60;;;;;;;3.35;90.29;99662.20;103438;1253;139655;-70
2024/03/05 02:41:06;;;;;;;24.80;18.80;;;;;;;3.34;90.26;99662.20;103548;1252;96425;-71
2024/03/05 02:43:33;;;;;;;26.30;19.20;;;;;;;3.34;90.33;99665.13;102786;1255;1002969;-70
2024/03/05 02:46:00;;;;;;;25.20;19.80;;;;;;;3.34;90.41;99664.09;103639;1256;138591;-71
2024/03/05 02:48:27;;;;;;;24.60;18.40;;;;;;;3.32;90.29;99662.92;103552;1253;96454;-70
2024/03/05 02:50:55;;;;;;;23.30;17.70;;;;;;;3.33;90.58;99665.65;103433;1251;138374;-70
2024/03/05 02:53:22;;;;;;;23.50;17.50;;;;;;;3.32;90.47;99671.17;103444;1255;96421;-70
2024/03/05 02:55:49;;;;;;;23.80;18.80;;;;;;;3.29;90.60;99668.11;103453;1251;110639;-71
2024/03/05 02:58:16;;;;;;;23.70;18.60;;;;;;;3.30;91.12;99672.22;103251;1253;139108;-72
2024/03/05 03:00:44;;;;;;;23.00;18.40;;;;;;;3.31;91.23;99671.18;104265;1252;94419;-70
2024/03/05 03:03:11;;;;;;;24.80;17.90;;;;;;;3.32;91.20;99671.68;103275;1255;138070;-70
2024/03/05 03:05:39;;;;;;;22.30;17.00;;;;;;;3.33;91.08;99671.33;103333;1255;96443;-70
2024/03/05 03:08:07;;;;;;;20.20;16.60;;;;;;;3.34;91.39;99671.14;103368;1255;138299;-70
2024/03/05 03:10:34;;;;;;;21.10;16.80;;;;;;;3.36;91.31;99670.25;104843;1252;107596;-71
2024/03/05 03:13:01;;;;;;;21.00;15.50;;;;;;;3.38;91.50;99669.02;104356;1250;96743;-70
2024/03/05 03:15:29;;;;;;;21.90;15.90;;;;;;;3.40;91.49;99671.91;103403;1253;138124;-70
2024/03/05 03:17:57;;;;;;;20.20;15.60;;;;;;;3.41;91.27;99672.09;103465;1253;96441;-70
2024/03/05 03:20:24;;;;;;;21.40;16.60;;;;;;;3.40;90.86;99668.14;102677;1251;1003687;-68
2024/03/05 03:22:51;;;;;;;23.00;16.60;;;;;;;3.40;91.15;99667.80;103488;1251;107305;-69
2024/03/05 03:25:19;;;;;;;21.70;15.80;;;;;;;3.39;91.12;99669.86;103489;1255;96317;-70
2024/03/05 03:27:47;;;;;;;20.30;15.50;;;;;;;3.38;90.95;99669.55;103614;1252;138124;-70
2024/03/05 03:30:19;;;;;;;19.10;15.40;;;;;;;3.38;91.31;99667.98;103878;1257;96508;-70
2024/03/05 03:32:47;;;;;;;18.80;15.10;;;;;;;3.40;91.59;99671.75;103490;1255;138117;-70
2024/03/05 03:35:15;;;;;;;22.20;16.10;;;;;;;3.40;91.63;99671.92;103556;1255;107614;-73
2024/03/05 03:37:42;;;;;;;20.20;15.10;;;;;;;3.41;91.73;99674.84;103526;1255;96886;-70
2024/03/05 03:40:17;;;;;;;20.20;15.40;;;;;;;3.41;91.74;99672.44;103333;1251;138596;-71
2024/03/05 03:42:45;;;;;;;20.60;15.40;;;;;;;3.41;91.37;99670.72;102975;1255;1003326;-69
2024/03/05 03:45:14;;;;;;;19.20;15.20;;;;;;;3.39;91.32;99672.61;101860;1252;1003160;-71
2024/03/05 03:47:41;;;;;;;20.20;15.10;;;;;;;3.39;91.83;99669.86;103429;1251;107587;-69
2024/03/05 03:50:09;;;;;;;17.40;14.40;;;;;;;3.40;91.42;99668.83;103375;1255;138380;-69
2024/03/05 03:52:38;;;;;;;20.10;14.70;;;;;;;3.39;91.60;99665.23;103627;1255;107006;-69
2024/03/05 03:55:08;;;;;;;19.30;14.40;;;;;;;3.36;91.57;99659.77;103595;1257;96733;-71
2024/03/05 03:57:35;;;;;;;19.00;14.50;;;;;;;3.34;91.44;99659.62;104327;1251;138203;-70
2024/03/05 04:00:07;;;;;;;17.60;13.90;;;;;;;3.34;91.38;99660.14;103379;1251;108063;-70
2024/03/05 04:02:36;;;;;;;18.80;13.80;;;;;;;3.32;91.49;99661.88;103382;1255;138458;-69
2024/03/05 04:05:04;;;;;;;18.80;14.40;;;;;;;3.31;91.75;99660.69;103722;1255;107224;-71
2024/03/05 04:07:31;;;;;;;16.50;13.40;;;;;;;3.32;91.93;99662.73;103426;1251;96879;-70
2024/03/05 04:10:00;;;;;;;17.80;14.10;;;;;;;3.32;92.04;99661.03;103346;1255;138670;-70
2024/03/05 04:12:28;;;;;;;19.30;14.30;;;;;;;3.34;92.13;99662.54;103475;1256;107325;-70
2024/03/05 04:14:55;;;;;;;18.00;14.00;;;;;;;3.35;92.22;99658.23;103353;1255;138380;-70
2024/03/05 04:17:22;;;;;;;19.10;13.70;;;;;;;3.36;92.25;99659.26;103351;1255;106959;-69
2024/03/05 04:19:50;;;;;;;20.00;14.90;;;;;;;3.36;92.13;99657.89;103448;1257;96451;-69
2024/03/05 04:22:18;;;;;;;19.00;14.40;;;;;;;3.37;92.45;99660.95;103498;1251;137935;-70
2024/03/05 04:24:52;;;;;;;18.60;14.70;;;;;;;3.38;92.08;99664.73;103401;1255;108380;-69
2024/03/05 04:27:19;;;;;;;19.00;14.20;;;;;;;3.38;92.61;99667.98;103394;1254;138665;-70
2024/03/05 04:29:47;;;;;;;18.30;14.20;;;;;;;3.40;92.72;99667.27;103440;1257;107572;-70
2024/03/05 04:32:14;;;;;;;20.00;14.70;;;;;;;3.42;92.70;99670.03;103463;1257;138285;-70
2024/03/05 04:34:43;;;;;;;17.80;13.70;;;;;;;3.43;92.73;99669.84;103515;1251;110275;-69
2024/03/05 04:37:10;;;;;;;18.10;14.00;;;;;;;3.44;92.81;99669.48;103505;1251;108228;-69
2024/03/05 04:39:37;;;;;;;20.60;15.10;;;;;;;3.45;92.40;99669.98;103461;1251;138206;-69
2024/03/05 04:42:06;;;;;;;19.90;14.60;;;;;;;3.45;92.50;99671.88;103540;1255;107711;-70
2024/03/05 04:44:35;;;;;;;18.70;15.20;;;;;;;3.45;92.57;99675.15;103794;1251;138290;-69
2024/03/05 04:47:03;;;;;;;20.40;15.10;;;;;;;3.45;92.62;99673.94;103533;1259;110336;-70
2024/03/05 04:49:31;;;;;;;20.10;14.70;;;;;;;3.44;92.53;99675.33;103531;1251;109805;-70
2024/03/05 04:51:58;;;;;;;24.40;15.70;;;;;;;3.43;92.57;99675.34;103384;1258;138804;-71
2024/03/05 04:54:25;;;;;;;22.20;15.80;;;;;;;3.43;93.07;99676.55;103490;1251;107578;-69
2024/03/05 04:56:52;;;;;;;21.80;15.70;;;;;;;3.41;92.92;99679.99;103365;1253;138633;-71
2024/03/05 04:59:19;;;;;;;24.80;16.60;;;;;;;3.39;92.83;99684.83;103499;1252;110665;-71
2024/03/05 05:01:47;;;;;;;25.80;16.70;;;;;;;3.36;93.20;99684.00;103462;1251;108536;-70
2024/03/05 05:04:14;;;;;;;25.30;16.90;;;;;;;3.36;93.18;99686.05;103825;1257;138644;-70
2024/03/05 05:06:41;;;;;;;27.00;17.50;;;;;;;3.37;93.30;99687.59;103370;1257;107975;-70
2024/03/05 05:09:08;;;;;;;25.00;17.30;;;;;;;3.37;93.55;99688.80;103367;1256;138435;-71
2024/03/05 05:11:35;;;;;;;25.80;18.00;;;;;;;3.39;93.54;99693.94;103383;1257;110311;-70
2024/03/05 05:14:02;;;;;;;28.30;17.80;;;;;;;3.40;93.72;99692.54;103326;1257;138381;-70
2024/03/05 05:16:30;;;;;;;25.00;18.00;;;;;;;3.42;93.88;99695.80;103450;1257;96534;-71
2024/03/05 05:18:57;;;;;;;26.80;18.10;;;;;;;3.44;93.91;99699.39;103440;1252;108677;-70
2024/03/05 05:21:25;;;;;;;26.50;18.00;;;;;;;3.47;94.13;99695.91;103361;1257;138156;-71
2024/03/05 05:23:51;;;;;;;27.50;19.10;;;;;;;3.50;94.03;99693.46;103424;1251;110360;-70
2024/03/05 05:26:19;;;;;;;24.90;17.60;;;;;;;3.52;93.94;99693.44;103384;1256;138502;-70
2024/03/05 05:28:45;;;;;;;27.60;18.50;;;;;;;3.54;94.06;99694.60;102790;1251;1003702;-71
2024/03/05 05:31:26;;;;;;;30.20;18.50;;;;;;;3.57;94.20;99692.33;103527;1257;107631;-71
2024/03/05 05:33:54;;;;;;;25.40;17.70;;;;;;;3.57;94.01;99693.87;103412;1251;138386;-71
2024/03/05 05:36:21;;;;;;;26.00;18.00;;;;;;;3.58;94.00;99693.34;103453;1251;110082;-71
2024/03/05 05:38:48;;;;;;;25.80;18.30;;;;;;;3.59;94.08;99696.11;103305;1254;138348;-71
2024/03/05 05:41:16;;;;;;;28.40;18.90;;;;;;;3.60;94.03;99697.13;103557;1251;96924;-71
2024/03/05 05:43:45;;;;;;;28.50;17.70;;;;;;;3.59;94.03;99699.71;103460;1254;107873;-72
2024/03/05 05:46:14;;;;;;;30.50;18.60;;;;;;;3.61;93.92;99700.56;103317;1251;138096;-70
2024/03/05 05:48:42;;;;;;;25.10;18.30;;;;;;;3.60;94.06;99699.02;103422;1256;109993;-71
2024/03/05 05:51:10;;;;;;;24.80;17.30;;;;;;;3.60;94.17;99702.29;103888;1251;138229;-71
2024/03/05 05:53:37;;;;;;;24.00;17.30;;;;;;;3.58;94.14;99701.77;103472;1255;96307;-70
2024/03/05 05:56:05;;;;;;;26.50;18.40;;;;;;;3.55;94.12;99701.98;103231;1251;138388;-70
2024/03/05 05:58:33;;;;;;;24.70;17.30;;;;;;;3.51;94.45;99700.33;104376;1251;94521;-71
2024/03/05 06:01:05;;;;;;;26.10;18.00;;;;;;;3.51;94.17;99703.23;103577;1256;109165;-71
2024/03/05 06:03:33;;;;;;;26.60;18.20;;;;;;;3.51;94.62;99701.18;103220;1255;138357;-70
2024/03/05 06:06:00;;;;;;;29.10;19.00;;;;;;;3.50;94.63;99707.22;103542;1251;96543;-71
2024/03/05 06:08:28;;;;;;;26.20;18.20;;;;;;;3.48;94.75;99704.48;103265;1251;138580;-70
2024/03/05 06:10:56;;;;;;;27.80;18.50;;;;;;;3.48;94.72;99706.38;103425;1254;96442;-70
2024/03/05 06:13:24;;;;;;;27.80;18.40;;;;;;;3.49;94.83;99708.42;103573;1252;109567;-72
2024/03/05 06:15:51;;;;;;;27.20;18.60;;;;;;;3.50;94.93;99712.36;103606;1251;138357;-73
2024/03/05 06:18:19;;;;;;;30.20;19.30;;;;;;;3.49;94.91;99715.30;103400;1251;98426;-70
2024/03/05 06:20:48;;;;;;;26.50;19.20;;;;;;;3.50;95.12;99718.55;104344;1251;138144;-72
2024/03/05 06:23:15;;;;;;;27.00;18.70;;;;;;;3.50;95.10;99722.51;103453;1251;97825;-72
2024/03/05 06:25:42;;;;;;;26.00;18.70;;;;;;;3.50;95.12;99721.98;103761;1257;111335;-70
2024/03/05 06:28:13;;;;;;;25.90;18.60;;;;;;;3.51;95.22;99720.60;103324;1256;137570;-72
2024/03/05 06:30:45;;;;;;;26.30;18.90;;;;;;;3.52;95.36;99719.05;103576;1251;97662;-69
2024/03/05 06:33:14;;;;;;;29.60;19.40;;;;;;;3.55;95.21;99726.56;103447;1251;138295;-72
2024/03/05 06:35:42;;;;;;;26.40;18.30;;;;;;;3.54;95.50;99731.73;103482;1252;97781;-70
2024/03/05 06:38:09;;;;;;;25.90;18.60;;;;;;;3.53;95.45;99732.27;103229;1253;138557;-70
2024/03/05 06:40:37;;;;;;;28.90;19.40;;;;;;;3.53;95.51;99736.57;103443;1251;108512;-71
2024/03/05 06:43:05;;;;;;;26.00;18.30;;;;;;;3.56;95.76;99741.85;103752;1257;99455;-70
2024/03/05 06:45:34;;;;;;;26.30;18.50;;;;;;;3.58;95.73;99743.02;104342;1251;138626;-70
2024/03/05 06:48:07;;;;;;;25.40;18.50;;;;;;;3.60;95.64;99735.96;103581;1256;97801;-73
2024/03/05 06:50:43;;;;;;;26.10;18.30;;;;;;;3.66;95.75;99732.46;103351;1254;138123;-71
2024/03/05 06:58:44;;;;;;;24.50;17.30;;;;;;;3.71;95.58;99734.27;104210;1252;107344;-71
2024/03/05 07:01:13;;;;;;;26.70;17.80;;;;;;;3.77;95.51;99743.15;103893;1257;97805;-74
2024/03/05 07:03:42;;;;;;;28.30;18.60;;;;;;;3.80;95.72;99740.02;103230;1257;138754;-68
2024/03/05 07:06:12;;;;;;;25.60;17.20;;;;;;;3.85;95.85;99741.85;102630;1256;1003046;-72
2024/03/05 07:08:42;;;;;;;26.00;17.40;;;;;;;3.89;95.68;99743.50;102500;1256;1003066;-70
2024/03/05 07:11:10;;;;;;;25.00;17.00;;;;;;;3.94;95.58;99750.16;103420;1256;107640;-68
2024/03/05 07:13:38;;;;;;;24.20;16.40;;;;;;;3.97;95.53;99759.77;103255;1257;97800;-74
2024/03/05 07:16:13;;;;;;;21.60;15.70;;;;;;;3.98;95.20;99765.08;103287;1251;139410;-71
2024/03/05 07:18:41;;;;;;;21.90;16.60;;;;;;;3.99;95.21;99768.67;103257;1251;107131;-70
2024/03/05 07:21:08;;;;;;;25.40;17.20;;;;;;;4.00;95.10;99771.23;103194;1251;138466;-72
2024/03/05 07:23:35;;;;;;;22.80;16.40;;;;;;;4.00;95.16;99778.47;103414;1255;108566;-73
2024/03/05 07:26:02;;;;;;;22.90;16.30;;;;;;;3.96;94.70;99777.15;103360;1251;98249;-70
2024/03/05 07:28:33;;;;;;;25.20;16.70;;;;;;;3.93;94.84;99771.33;103285;1258;113076;-72
2024/03/05 07:31:01;;;;;;;26.60;17.70;;;;;;;3.96;94.93;99771.13;103295;1251;107384;-71
2024/03/05 07:33:28;;;;;;;24.90;17.10;;;;;;;3.96;94.98;99769.23;103023;1251;138793;-70
2024/03/05 07:35:55;;;;;;;22.90;17.40;;;;;;;3.96;95.13;99768.89;103428;1254;107690;-73
2024/03/05 07:38:23;;;;;;;23.60;15.90;;;;;;;3.97;95.07;99769.57;103330;1251;138586;-73
2024/03/05 07:40:51;;;;;;;23.30;16.50;;;;;;;3.97;95.23;99771.64;103423;1251;111834;-73
2024/03/05 07:43:19;;;;;;;23.70;17.60;;;;;;;3.98;95.26;99764.90;103522;1251;107240;-72
2024/03/05 07:45:46;;;;;;;26.10;17.60;;;;;;;4.03;95.45;99769.46;103430;1251;138523;-72
2024/03/05 07:48:16;;;;;;;23.90;17.30;;;;;;;4.07;95.28;99769.42;103455;1251;107943;-72
2024/03/05 07:50:43;;;;;;;22.50;16.10;;;;;;;4.10;95.25;99769.02;103399;1251;138708;-73
2024/03/05 07:53:11;;;;;;;25.60;18.50;;;;;;;4.14;95.30;99771.23;103359;1251;112059;-72
2024/03/05 07:55:39;;;;;;;25.40;17.10;;;;;;;4.17;95.33;99771.17;103340;1251;107434;-71
2024/03/05 07:58:13;;;;;;;26.00;17.40;;;;;;;4.19;95.06;99776.14;103409;1254;137360;-71
2024/03/05 08:00:40;;;;;;;26.80;17.80;;;;;;;4.21;95.08;99778.01;103692;1251;106924;-69
2024/03/05 08:03:08;;;;;;;26.90;17.70;;;;;;;4.23;94.81;99778.83;103325;1257;140659;-67
2024/03/05 08:05:35;;;;;;;24.90;17.60;;;;;;;4.26;95.10;99774.14;103394;1254;111836;-69
2024/03/05 08:08:04;;;;;;;25.80;18.10;;;;;;;4.28;94.93;99768.61;103745;1251;106330;-70
2024/03/05 08:10:34;;;;;;;25.50;18.10;;;;;;;4.31;95.03;99761.69;103247;1255;97784;-71
2024/03/05 08:13:02;;;;;;;28.00;18.20;;;;;;;4.36;95.03;99760.25;103217;1257;107334;-69
2024/03/05 08:15:29;;;;;;;26.30;18.20;;;;;;;4.43;95.25;99760.64;103300;1252;139000;-70
2024/03/05 08:17:57;;;;;;;27.10;18.30;;;;;;;4.50;95.28;99766.41;103728;1251;110279;-67
2024/03/05 08:20:25;;;;;;;24.50;17.90;;;;;;;4.55;95.08;99778.20;103295;1251;139575;-67
2024/03/05 08:22:53;;;;;;;25.40;17.70;;;;;;;4.57;94.83;99792.80;103429;1250;98019;-68
2024/03/05 08:25:22;;;;;;;28.00;18.80;;;;;;;4.55;94.55;99801.28;103503;1251;107311;-68
2024/03/05 08:27:54;;;;;;;26.80;18.50;;;;;;;4.51;94.40;99807.53;103457;1251;138509;-68
2024/03/05 08:30:23;;;;;;;26.90;18.90;;;;;;;4.50;94.32;99808.75;103948;1257;110331;-67
2024/03/05 08:32:51;;;;;;;26.40;19.10;;;;;;;4.50;94.08;99809.27;103377;1257;138552;-67
2024/03/05 08:35:18;;;;;;;25.30;19.20;;;;;;;4.51;94.36;99807.36;103492;1251;97846;-68
2024/03/05 08:37:47;;;;;;;27.80;19.50;;;;;;;4.53;94.28;99813.02;103512;1251;107686;-67
2024/03/05 08:40:15;;;;;;;26.70;19.70;;;;;;;4.58;94.33;99820.16;103263;1254;138295;-68
2024/03/05 08:42:45;;;;;;;26.30;18.50;;;;;;;4.63;94.25;99817.67;103500;1254;110704;-68
2024/03/05 08:45:14;;;;;;;31.10;19.50;;;;;;;4.64;94.22;99823.34;103398;1251;138370;-68
2024/03/05 08:47:44;;;;;;;24.80;18.30;;;;;;;4.65;94.06;99821.94;104329;1251;96854;-68
2024/03/05 08:50:12;;;;;;;25.80;18.30;;;;;;;4.68;93.97;99815.37;103376;1256;138818;-67
2024/03/05 08:52:39;;;;;;;28.60;19.50;;;;;;;4.68;93.84;99808.64;103568;1251;97891;-67
2024/03/05 08:55:08;;;;;;;24.80;18.70;;;;;;;4.70;93.72;99815.85;103471;1251;109933;-67
2024/03/05 08:57:37;;;;;;;27.40;18.20;;;;;;;4.69;93.68;99817.77;104252;1252;139062;-69
2024/03/05 09:00:06;;;;;;;27.00;19.40;;;;;;;4.71;93.63;99817.56;103608;1251;98277;-68
2024/03/05 09:02:52;;;;;;;26.70;19.90;;;;;;;4.73;93.82;99818.91;104641;1251;138138;-68
2024/03/05 09:05:20;;;;;;;26.90;19.50;;;;;;;4.77;94.05;99817.98;103458;1254;1002210;-68
2024/03/05 09:07:47;;;;;;;28.60;19.70;;;;;;;4.81;93.84;99812.73;103471;1251;112053;-68
2024/03/05 09:10:14;;;;;;;29.70;20.10;;;;;;;4.87;93.90;99817.67;103395;1254;138486;-68
2024/03/05 09:12:42;;;;;;;28.20;20.30;;;;;;;4.90;94.20;99821.23;103356;1251;97818;-68
2024/03/05 09:15:12;;;;;;;36.50;26.00;;;;;;;5.00;94.29;99824.33;103380;1251;138318;-68
2024/03/05 09:17:39;;;;;;;36.30;25.10;;;;;;;5.06;94.09;99821.67;103575;1251;97804;-68
2024/03/05 09:20:14;;;;;;;31.00;21.80;;;;;;;5.14;94.00;99822.21;103498;1256;111694;-68
2024/03/05 09:22:44;;;;;;;32.20;23.80;;;;;;;5.23;94.08;99824.13;103540;1256;107103;-68
2024/03/05 09:25:13;;;;;;;27.40;21.20;;;;;;;5.33;94.03;99825.15;103525;1255;99471;-68
2024/03/05 09:27:40;;;;;;;29.50;21.00;;;;;;;5.43;93.89;99827.73;103467;1251;138276;-67
2024/03/05 09:30:10;;;;;;;28.90;20.70;;;;;;;5.52;93.46;99827.58;103465;1251;97797;-68
2024/03/05 09:32:37;;;;;;;29.00;20.00;;;;;;;5.58;93.02;99829.02;104695;1251;138486;-68
2024/03/05 09:35:08;;;;;;;27.00;20.70;;;;;;;5.64;92.74;99835.11;103109;1251;1002573;-68
2024/03/05 09:37:36;;;;;;;29.80;20.20;;;;;;;5.69;92.54;99836.90;103911;1251;97903;-67
2024/03/05 09:40:06;;;;;;;28.80;21.00;;;;;;;5.76;92.38;99844.73;103374;1251;138365;-68
2024/03/05 09:42:34;;;;;;;25.60;19.70;;;;;;;5.81;92.46;99844.27;104743;1251;95910;-70
2024/03/05 09:45:05;;;;;;;32.70;20.70;;;;;;;5.86;92.22;99847.63;104672;1251;138361;-66
2024/03/05 09:47:34;;;;;;;26.50;19.40;;;;;;;5.92;92.08;99851.86;104016;1251;106719;-66
2024/03/05 09:50:03;;;;;;;31.90;21.90;;;;;;;5.98;92.03;99852.60;103471;1251;98403;-70
2024/03/05 09:52:31;;;;;;;30.00;20.20;;;;;;;6.06;91.92;99854.34;103316;1251;107868;-73
2024/03/05 09:54:59;;;;;;;65.90;23.50;;;;;;;6.12;91.64;99857.52;103900;1251;97708;-70
2024/03/05 09:57:29;;;;;;;55.10;21.20;;;;;;;6.17;91.54;99861.71;104504;1251;139263;-70
2024/03/05 09:59:57;;;;;;;48.40;21.50;;;;;;;6.24;91.34;99863.98;103463;1251;106049;-70
2024/03/05 10:02:26;;;;;;;31.30;20.20;;;;;;;6.29;90.93;99858.72;103279;1254;138715;-69
2024/03/05 10:04:56;;;;;;;27.60;19.70;;;;;;;6.29;90.32;99869.76;103872;1251;107103;-69
2024/03/05 10:07:31;;;;;;;28.20;19.10;;;;;;;6.29;90.02;99876.86;104622;1251;98580;-68
2024/03/05 10:10:11;;;;;;;27.30;19.20;;;;;;;6.29;90.14;99874.95;104285;1252;138553;-69
2024/03/05 10:12:40;;;;;;;29.70;19.20;;;;;;;6.30;90.06;99882.17;104677;1256;107720;-70
2024/03/05 10:15:20;;;;;;;29.00;19.10;;;;;;;6.30;89.80;99881.83;104358;1253;138771;-69
2024/03/05 10:17:49;;;;;;;26.70;18.90;;;;;;;6.31;89.65;99886.13;104106;1252;109527;-70
2024/03/05 10:20:27;;;;;;;25.40;19.50;;;;;;;6.31;89.66;99889.23;103370;1254;139042;-69
2024/03/05 10:22:55;;;;;;;28.20;18.50;;;;;;;6.32;89.65;99889.05;103892;1255;110417;-70
2024/03/05 10:25:24;;;;;;;26.40;18.70;;;;;;;6.32;89.65;99887.99;103373;1252;108662;-69
2024/03/05 10:27:51;;;;;;;29.70;19.30;;;;;;;6.33;89.56;99893.85;103771;1251;138478;-69
2024/03/05 10:30:28;;;;;;;36.00;25.30;;;;;;;6.33;89.45;99894.90;104178;1249;107837;-69
2024/03/05 10:33:00;;;;;;;30.50;22.20;;;;;;;6.31;89.41;99892.16;104091;1252;139813;-69
2024/03/05 10:35:27;;;;;;;37.10;25.30;;;;;;;6.31;89.46;99893.38;104060;1251;111907;-68
2024/03/05 10:38:05;;;;;;;27.00;20.20;;;;;;;6.30;89.24;99890.64;103457;1255;107678;-68
2024/03/05 10:40:35;;;;;;;25.80;18.80;;;;;;;6.31;89.37;99891.66;102639;1252;1002823;-68
2024/03/05 10:43:04;;;;;;;26.60;20.00;;;;;;;6.30;89.38;99886.66;103441;1254;109696;-69
2024/03/05 10:45:32;;;;;;;27.90;20.60;;;;;;;6.31;89.12;99892.17;103292;1256;138601;-69
2024/03/05 10:48:01;;;;;;;26.30;20.50;;;;;;;6.28;89.16;99891.52;103429;1256;112007;-70
2024/03/05 10:50:29;;;;;;;27.40;20.80;;;;;;;6.25;89.14;99893.83;103430;1256;138468;-69
2024/03/05 10:52:57;;;;;;;28.00;20.70;;;;;;;6.22;89.08;99894.06;104088;1254;96805;-69
2024/03/05 10:55:25;;;;;;;31.20;20.80;;;;;;;6.21;89.33;99895.30;103351;1252;107600;-68
2024/03/05 11:00:42;;;;;;;29.50;19.40;;;;;;;6.21;89.34;99900.30;103731;1252;113064;-69
2024/03/05 11:03:12;;;;;;;25.90;19.60;;;;;;;6.20;89.33;99901.20;103527;1252;138804;-70
2024/03/05 11:05:47;;;;;;;25.80;19.30;;;;;;;6.20;89.53;99900.50;104545;1252;96181;-70
2024/03/05 11:08:17;;;;;;;28.20;20.50;;;;;;;6.20;89.38;99902.91;103323;1252;138409;-70
2024/03/05 11:10:50;;;;;;;27.80;20.40;;;;;;;6.19;89.29;99904.84;103779;1251;98193;-66
2024/03/05 11:13:19;;;;;;;26.40;20.20;;;;;;;6.18;89.31;99899.51;103526;1251;111097;-69
2024/03/05 11:15:46;;;;;;;103.10;60.90;;;;;;;6.17;89.74;99901.08;103965;1256;138945;-71
2024/03/05 11:18:33;;;;;;;58.80;34.90;;;;;;;6.20;89.72;99900.16;104432;1251;96106;-69
2024/03/05 11:21:07;;;;;;;26.80;19.60;;;;;;;6.20;89.37;99901.36;103292;1254;140347;-69
2024/03/05 11:23:34;;;;;;;29.00;20.90;;;;;;;6.20;89.58;99907.23;104009;1252;99102;-70